Flight Track Log - Related Links

Times and Time Zones

All times are in EDT time to prevent confusion due to time zone crossing. See the N4446X flight status page for this flight to view local times or setup timezone preferences in your user account.

Time Position Orientation Groundspeed Altitude Reporting Facility
EDT Latitude Longitude Course Direction KTS MPH feet Rate Location/Type
Tue 04:30:15 PM 45.9064 -86.1503 321° Northwest 107 123 3,100  Level Minneapolis Center
Tue 04:31:17 PM 45.8772 -86.1489 178° South 105 121 3,800 823 Climbing Minneapolis Center
Tue 04:32:19 PM 45.8414 -86.1508 182° South 105 121 4,800 919 Climbing Minneapolis Center
Tue 04:33:21 PM 45.8097 -86.1522 182° South 109 125 5,700 871 Climbing Minneapolis Center
Tue 04:34:23 PM 45.7783 -86.1472 174° South 112 129 6,600 677 Climbing Minneapolis Center
Tue 04:35:00 PM 45.0626 -86.0579 321° Northwest  Level Estimated
Tue 04:35:25 PM 45.7436 -86.1428 175° South 117 135 7,100  Level Minneapolis Center
Tue 04:36:27 PM 45.7006 -86.1383 176° South 136 157 7,100  Level Minneapolis Center
Tue 04:37:29 PM 45.6442 -86.1297 174° South 158 182 7,100  Level Minneapolis Center
Tue 04:38:31 PM 45.5983 -86.1244 175° South 163 188 7,100  Level Minneapolis Center
Tue 04:39:33 PM 45.5519 -86.1197 176° South 166 191 7,100 -48 Level Minneapolis Center
Tue 04:40:35 PM 45.5042 -86.1139 175° South 169 194 7,000 -48 Descending Minneapolis Center
Tue 04:41:37 PM 45.4581 -86.1075 174° South 169 194 7,000 97 Level Minneapolis Center
Tue 04:42:39 PM 45.4114 -86.1017 175° South 168 193 7,200 48 Climbing Minneapolis Center
Tue 04:43:42 PM 45.3547 -86.0944 175° South 169 194 7,100 -48 Descending Minneapolis Center
Tue 04:44:44 PM 45.3075 -86.0886 175° South 170 196 7,100  Level Minneapolis Center
Tue 04:45:46 PM 45.2611 -86.0836 176° South 170 196 7,100  Level Minneapolis Center
Tue 04:46:48 PM 45.2142 -86.0778 175° South 169 194 7,100  Level Minneapolis Center
Tue 04:47:50 PM 45.1667 -86.0717 175° South 169 194 7,100  Level Minneapolis Center
Tue 04:48:52 PM 45.1192 -86.0658 175° South 172 198 7,100  Level Minneapolis Center
Tue 04:49:54 PM 45.0636 -86.0592 175° South 169 194 7,100  Level Minneapolis Center
Tue 04:50:56 PM 45.0172 -86.0539 175° South 168 193 7,100  Level Minneapolis Center
Tue 04:51:58 PM 44.9706 -86.0481 175° South 167 192 7,100  Level Minneapolis Center
Tue 04:53:00 PM 44.9239 -86.0419 175° South 168 193 7,100  Level Minneapolis Center
Tue 04:54:02 PM 44.8783 -86.0367 175° South 167 192 7,100  Level Minneapolis Center
Tue 04:55:04 PM 44.8314 -86.0308 175° South 167 192 7,100  Level Minneapolis Center
Tue 04:56:06 PM 44.7825 -86.0181 169° South 168 193 7,100  Level Minneapolis Center
Tue 04:57:08 PM 44.7347 -86.0158 178° South 169 194 7,100  Level Minneapolis Center
Tue 04:58:10 PM 44.6897 -86.0111 176° South 166 191 7,100  Level Minneapolis Center
Tue 04:59:13 PM 44.6347 -86.0028 174° South 165 190 7,100  Level Minneapolis Center
Tue 05:00:15 PM 44.5889 -85.9992 177° South 166 191 7,100  Level Minneapolis Center
Tue 05:01:17 PM 44.5414 -85.9925 174° South 169 194 7,100  Level Minneapolis Center
Tue 05:02:19 PM 44.4950 -85.9869 175° South 168 193 7,100  Level Minneapolis Center
Tue 05:03:21 PM 44.4483 -85.9808 175° South 169 194 7,100  Level Minneapolis Center
Tue 05:04:23 PM 44.3922 -85.9736 175° South 169 194 7,100  Level Minneapolis Center
Tue 05:05:25 PM 44.3461 -85.9786 184° South 167 192 7,100  Level Minneapolis Center
Tue 05:06:27 PM 44.2997 -85.9758 178° South 167 192 7,100  Level Minneapolis Center
Tue 05:07:29 PM 44.2547 -85.9564 163° South 168 193 7,100  Level Minneapolis Center
Tue 05:08:31 PM 44.2086 -85.9483 173° South 168 193 7,100  Level Minneapolis Center
Tue 05:09:33 PM 44.1622 -85.9500 181° South 167 192 7,100  Level Minneapolis Center
Tue 05:10:35 PM 44.1069 -85.9392 172° South 167 192 7,100  Level Minneapolis Center
Tue 05:11:37 PM 44.0642 -85.9339 175° South 168 193 7,100  Level Minneapolis Center
Tue 05:12:39 PM 44.0178 -85.9308 177° South 167 192 7,100  Level Minneapolis Center
Tue 05:13:54 PM 43.9622 -85.9225 174° South 168 193 7,100  Level Minneapolis Center
Tue 05:14:56 PM 43.9075 -85.9144 174° South 166 191 7,100  Level Minneapolis Center
Tue 05:15:58 PM 43.8614 -85.9094 176° South 167 192 7,100  Level Minneapolis Center
Tue 05:17:00 PM 43.8156 -85.9053 176° South 165 190 7,100  Level Minneapolis Center
Tue 05:18:02 PM 43.7700 -85.8983 174° South 165 190 7,100  Level Minneapolis Center
Tue 05:19:04 PM 43.7233 -85.8942 176° South 167 192 7,100  Level Minneapolis Center
Tue 05:20:06 PM 43.6767 -85.8881 175° South 168 193 7,100  Level Minneapolis Center
Tue 05:21:09 PM 43.6211 -85.8819 175° South 168 193 7,100  Level Minneapolis Center
Tue 05:22:11 PM 43.5747 -85.8772 176° South 167 192 7,100  Level Minneapolis Center
Tue 05:23:13 PM 43.5275 -85.8689 173° South 170 196 7,100  Level Minneapolis Center
Tue 05:24:19 PM 43.4808 -85.8639 176° South 170 196 7,100  Level Chicago Center
Tue 05:25:21 PM 43.4244 -85.8594 177° South 169 194 7,100 -97 Level Chicago Center
Tue 05:26:23 PM 43.3775 -85.8558 177° South 169 194 6,900 -339 Descending Chicago Center
Tue 05:27:25 PM 43.3281 -85.8489 174° South 175 201 6,400 -484 Descending Chicago Center
Tue 05:28:27 PM 43.2781 -85.8442 176° South 179 206 5,900 -532 Descending Chicago Center
Tue 05:29:29 PM 43.2281 -85.8378 175° South 179 206 5,300 -581 Descending Chicago Center
Tue 05:30:31 PM 43.1794 -85.8325 175° South 177 204 4,700 -677 Descending Chicago Center
Tue 05:31:33 PM 43.1222 -85.8261 175° South 174 200 3,900 -528 Descending Chicago Center
Tue 05:32:36 PM 43.0814 -85.8214 175° South 170 196 3,600 -286 Descending Chicago Center

Login

Don't have an account? Register now (free) for customized features, flight alerts, and more!